createdAt,value
2018-11-11T00:00:01.226Z,6.87
2018-11-11T00:01:05.827Z,7.20
2018-11-11T00:02:14.189Z,6.00
2018-11-11T00:03:19.303Z,4.90
2018-11-11T00:04:23.988Z,5.40
2018-11-11T00:05:28.377Z,7.30
2018-11-11T00:06:46.452Z,6.60
2018-11-11T00:07:51.131Z,5.60
2018-11-11T00:08:56.158Z,5.12
2018-11-11T00:10:01.264Z,4.85
2018-11-11T00:11:06.122Z,5.90
2018-11-11T00:12:10.571Z,10.58
2018-11-11T00:13:15.106Z,11.55
2018-11-11T00:14:20.237Z,4.92
2018-11-11T00:15:24.527Z,6.10
2018-11-11T00:16:29.269Z,6.33
2018-11-11T00:17:35.067Z,7.20
2018-11-11T00:18:39.421Z,10.15
2018-11-11T00:19:43.679Z,6.05
2018-11-11T00:20:49.252Z,5.50
2018-11-11T00:21:56.533Z,9.40
2018-11-11T00:23:02.291Z,7.37
2018-11-11T00:24:06.641Z,10.00
2018-11-11T00:25:12.119Z,5.80
2018-11-11T00:26:16.484Z,8.28
2018-11-11T00:27:21.904Z,7.17
2018-11-11T00:28:26.265Z,8.65
2018-11-11T00:29:31.396Z,10.80
2018-11-11T00:30:36.219Z,7.87
2018-11-11T00:31:41.108Z,6.00
2018-11-11T00:32:48.460Z,8.83
2018-11-11T00:33:52.834Z,9.98
2018-11-11T00:34:57.340Z,5.72
2018-11-11T00:36:02.474Z,8.70
2018-11-11T00:37:06.926Z,6.87
2018-11-11T00:38:11.595Z,7.95
2018-11-11T00:39:16.481Z,7.95
2018-11-11T00:40:22.304Z,6.55
2018-11-11T00:41:26.763Z,10.10
2018-11-11T00:42:31.269Z,7.25
2018-11-11T00:43:39.316Z,8.85
2018-11-11T00:44:44.134Z,6.65
2018-11-11T00:45:48.671Z,4.85
2018-11-11T00:46:54.564Z,7.95
2018-11-11T00:48:02.092Z,6.42
2018-11-11T00:49:06.805Z,9.13
2018-11-11T00:50:11.941Z,6.60
2018-11-11T00:51:16.791Z,5.83
2018-11-11T00:52:21.070Z,5.50
2018-11-11T00:53:25.431Z,7.20
2018-11-11T00:54:30.310Z,5.78
2018-11-11T00:55:40.105Z,4.80
2018-11-11T00:56:44.428Z,6.15
2018-11-11T00:57:49.319Z,5.83
2018-11-11T00:58:54.694Z,6.25
2018-11-11T00:59:59.011Z,5.30
2018-11-11T01:01:04.400Z,5.03
2018-11-11T01:02:08.656Z,7.10
2018-11-11T01:03:16.431Z,5.10
2018-11-11T01:04:21.514Z,5.33
2018-11-11T01:05:25.805Z,8.83
2018-11-11T01:06:30.331Z,10.98
2018-11-11T01:07:34.721Z,4.35
2018-11-11T01:08:39.002Z,4.65
2018-11-11T01:09:43.199Z,4.62
2018-11-11T01:10:47.496Z,6.83
2018-11-11T01:11:51.728Z,6.45
2018-11-11T01:12:55.974Z,5.08
2018-11-11T01:14:00.356Z,5.30
2018-11-11T01:15:06.134Z,5.72
2018-11-11T01:16:10.840Z,4.97
2018-11-11T01:17:15.442Z,6.05
2018-11-11T01:18:19.658Z,5.92
2018-11-11T01:19:25.334Z,4.65
2018-11-11T01:20:29.877Z,8.38
2018-11-11T01:21:34.645Z,4.03
2018-11-11T01:22:39.928Z,7.50
2018-11-11T01:23:44.876Z,7.17
2018-11-11T01:24:49.120Z,6.08
2018-11-11T01:25:53.341Z,8.58
2018-11-11T01:26:57.604Z,5.30
2018-11-11T01:28:02.444Z,5.72
2018-11-11T01:29:06.865Z,7.20
2018-11-11T01:30:11.247Z,6.37
2018-11-11T01:31:15.550Z,5.60
2018-11-11T01:32:20.813Z,5.08
2018-11-11T01:33:25.094Z,5.37
2018-11-11T01:34:29.547Z,4.50
2018-11-11T01:35:34.248Z,6.25
2018-11-11T01:36:38.561Z,7.45
2018-11-11T01:37:43.298Z,4.40
2018-11-11T01:38:47.565Z,7.42
2018-11-11T01:39:51.953Z,5.95
2018-11-11T01:40:56.873Z,5.08
2018-11-11T01:42:01.686Z,5.53
2018-11-11T01:43:06.219Z,6.05
2018-11-11T01:44:10.452Z,7.75
2018-11-11T01:45:17.512Z,6.92
2018-11-11T01:46:21.769Z,6.83
2018-11-11T01:47:25.988Z,7.08
2018-11-11T01:48:31.759Z,7.20
2018-11-11T01:49:36.006Z,4.37
2018-11-11T01:50:40.250Z,6.35
2018-11-11T01:51:44.452Z,6.05
2018-11-11T01:52:48.687Z,11.28
2018-11-11T01:53:54.722Z,6.08
2018-11-11T01:54:59.075Z,9.85
2018-11-11T01:56:03.365Z,5.67
2018-11-11T01:57:07.607Z,10.15
2018-11-11T01:58:11.793Z,5.50
2018-11-11T01:59:16.040Z,5.12
2018-11-11T02:00:20.838Z,6.62
2018-11-11T02:01:25.276Z,8.53
2018-11-11T02:02:29.470Z,8.95
2018-11-11T02:03:33.688Z,6.42
2018-11-11T02:04:38.022Z,8.00
2018-11-11T02:05:42.531Z,11.70
2018-11-11T02:06:46.790Z,9.73
2018-11-11T02:07:50.930Z,7.87
2018-11-11T02:08:55.412Z,9.95
2018-11-11T02:10:00.652Z,10.15
2018-11-11T02:11:05.037Z,11.70
2018-11-11T02:12:09.564Z,12.23
2018-11-11T02:13:14.243Z,10.63
2018-11-11T02:14:18.474Z,6.80
2018-11-11T02:15:22.850Z,10.88
2018-11-11T02:16:27.084Z,11.40
2018-11-11T02:17:31.247Z,14.40
2018-11-11T02:18:35.444Z,9.58
2018-11-11T02:19:39.774Z,9.03
2018-11-11T02:20:44.165Z,6.65
2018-11-11T02:21:48.435Z,7.40
2018-11-11T02:22:52.853Z,9.38
2018-11-11T02:23:57.261Z,8.18
2018-11-11T02:25:02.111Z,7.80
2018-11-11T02:26:06.461Z,9.70
2018-11-11T02:27:10.736Z,8.70
2018-11-11T02:28:15.832Z,9.40
2018-11-11T02:29:19.984Z,8.18
2018-11-11T02:30:24.619Z,6.78
2018-11-11T02:31:29.365Z,7.35
2018-11-11T02:32:33.594Z,7.00
2018-11-11T02:33:37.796Z,7.40
2018-11-11T02:34:42.394Z,7.80
2018-11-11T02:35:46.608Z,7.83
2018-11-11T02:36:51.660Z,6.70
2018-11-11T02:37:55.869Z,12.58
2018-11-11T02:39:00.501Z,8.20
2018-11-11T02:40:06.015Z,13.03
2018-11-11T02:41:11.003Z,7.95
2018-11-11T02:42:15.193Z,6.85
2018-11-11T02:43:19.695Z,7.67
2018-11-11T02:44:23.894Z,7.17
2018-11-11T02:45:28.159Z,8.43
2018-11-11T02:46:32.385Z,15.55
2018-11-11T02:47:36.824Z,10.58
2018-11-11T02:48:41.503Z,7.35
2018-11-11T02:49:46.209Z,8.83
2018-11-11T02:50:50.781Z,6.60
2018-11-11T02:51:54.943Z,7.42
2018-11-11T02:53:06.403Z,12.23
2018-11-11T02:54:12.377Z,5.80
2018-11-11T02:55:31.424Z,6.40
2018-11-11T02:56:44.021Z,6.22
2018-11-11T02:58:01.786Z,7.95
2018-11-11T02:59:11.377Z,7.00
2018-11-11T03:00:39.708Z,8.40
2018-11-11T03:01:59.219Z,7.67
2018-11-11T03:03:41.058Z,7.78
2018-11-11T03:04:45.807Z,6.53
2018-11-11T03:06:12.957Z,7.45
2018-11-11T03:07:17.176Z,9.43
2018-11-11T03:09:59.435Z,11.93
2018-11-11T03:11:03.671Z,8.03
2018-11-11T03:12:08.264Z,5.12
2018-11-11T03:13:12.472Z,8.20
2018-11-11T03:14:17.110Z,7.20
2018-11-11T03:15:21.336Z,9.33
2018-11-11T03:16:25.750Z,13.85
2018-11-11T03:17:30.117Z,7.97
2018-11-11T03:18:34.322Z,5.95
2018-11-11T03:19:38.527Z,12.33
2018-11-11T03:20:42.920Z,6.15
2018-11-11T03:21:47.098Z,10.18
2018-11-11T03:22:51.258Z,12.70
2018-11-11T03:23:55.861Z,12.28
2018-11-11T03:25:03.521Z,11.73
2018-11-11T03:26:07.948Z,11.48
2018-11-11T03:27:12.141Z,6.62
2018-11-11T03:28:16.358Z,9.35
2018-11-11T03:29:20.692Z,15.98
2018-11-11T03:30:25.297Z,18.57
2018-11-11T03:31:29.589Z,9.88
2018-11-11T03:32:33.799Z,10.58
2018-11-11T03:33:38.119Z,12.63
2018-11-11T03:34:42.320Z,6.50
2018-11-11T03:35:46.553Z,6.75
2018-11-11T03:36:50.826Z,6.25
2018-11-11T03:37:55.030Z,20.23
2018-11-11T03:38:59.245Z,54.77
2018-11-11T03:40:03.874Z,8.95
2018-11-11T03:41:08.122Z,8.08
2018-11-11T03:42:12.340Z,11.00
2018-11-11T03:43:16.690Z,4.83
2018-11-11T03:44:20.917Z,6.80
2018-11-11T03:45:25.065Z,9.98
2018-11-11T03:46:29.339Z,6.70
2018-11-11T03:47:33.791Z,10.70
2018-11-11T03:48:38.255Z,10.05
2018-11-11T03:49:42.637Z,8.15
2018-11-11T03:50:46.831Z,8.05
2018-11-11T03:51:51.075Z,9.10
2018-11-11T03:52:55.300Z,22.80
2018-11-11T03:53:59.719Z,8.73
2018-11-11T03:55:04.176Z,9.33
2018-11-11T03:56:08.390Z,11.65
2018-11-11T03:57:12.575Z,8.35
2018-11-11T03:58:16.787Z,6.95
2018-11-11T03:59:22.797Z,8.53
2018-11-11T04:00:27.084Z,8.85
2018-11-11T04:01:31.314Z,17.62
2018-11-11T04:02:35.673Z,6.28
2018-11-11T04:03:39.873Z,10.85
2018-11-11T04:04:44.065Z,7.75
2018-11-11T04:05:48.978Z,8.45
2018-11-11T04:06:53.447Z,9.78
2018-11-11T04:07:57.596Z,8.90
2018-11-11T04:09:02.275Z,8.68
2018-11-11T04:10:08.342Z,9.83
2018-11-11T04:11:12.570Z,8.18
2018-11-11T04:12:16.869Z,8.90
2018-11-11T04:13:21.094Z,7.53
2018-11-11T04:14:32.336Z,9.30
2018-11-11T04:15:36.818Z,14.85
2018-11-11T04:16:41.525Z,13.30
2018-11-11T04:17:45.873Z,14.50
2018-11-11T04:18:50.035Z,15.15
2018-11-11T04:19:54.813Z,15.43
2018-11-11T04:20:59.650Z,18.50
2018-11-11T04:22:11.637Z,12.35
2018-11-11T04:23:16.099Z,12.30
2018-11-11T04:24:20.363Z,14.13
2018-11-11T04:25:24.548Z,8.45
2018-11-11T04:26:28.740Z,10.13
2018-11-11T04:27:32.975Z,17.52
2018-11-11T04:28:37.133Z,11.53
2018-11-11T04:29:41.474Z,10.95
2018-11-11T04:30:45.663Z,8.08
2018-11-11T04:31:49.892Z,12.68
2018-11-11T04:32:54.216Z,5.75
2018-11-11T04:33:58.501Z,10.68
2018-11-11T04:35:02.969Z,15.90
2018-11-11T04:36:07.321Z,9.18
2018-11-11T04:37:11.703Z,11.68
2018-11-11T04:38:16.222Z,11.73
2018-11-11T04:39:20.588Z,6.00
2018-11-11T04:40:24.794Z,7.70
2018-11-11T04:41:28.934Z,8.70
2018-11-11T04:42:33.144Z,7.58
2018-11-11T04:43:37.356Z,11.85
2018-11-11T04:44:41.889Z,10.28
2018-11-11T04:45:46.234Z,6.97
2018-11-11T04:46:50.405Z,6.58
2018-11-11T04:47:54.647Z,9.30
2018-11-11T04:48:59.483Z,11.43
2018-11-11T04:50:04.616Z,11.20
2018-11-11T04:51:09.164Z,7.03
2018-11-11T04:52:13.600Z,12.43
2018-11-11T04:53:17.797Z,7.83
2018-11-11T04:54:22.063Z,8.53
2018-11-11T04:55:26.311Z,4.90
2018-11-11T04:56:31.031Z,10.43
2018-11-11T04:57:35.197Z,11.30
2018-11-11T04:58:39.362Z,7.35
2018-11-11T04:59:43.573Z,7.70
2018-11-11T05:00:47.808Z,9.80
2018-11-11T05:01:53.835Z,10.03
2018-11-11T05:02:58.844Z,6.33
2018-11-11T05:04:03.245Z,11.18
2018-11-11T05:05:08.412Z,12.80
2018-11-11T05:06:12.622Z,7.42
2018-11-11T05:07:19.380Z,8.38
2018-11-11T05:08:23.608Z,10.32
2018-11-11T05:09:29.051Z,9.90
2018-11-11T05:10:34.261Z,12.98
2018-11-11T05:11:39.751Z,21.35
2018-11-11T05:12:43.922Z,11.60
2018-11-11T05:13:48.881Z,10.20
2018-11-11T05:14:53.921Z,14.85
2018-11-11T05:15:58.121Z,12.20
2018-11-11T05:17:04.772Z,13.68
2018-11-11T05:18:09.226Z,13.62
2018-11-11T05:19:13.439Z,13.22
2018-11-11T05:20:17.846Z,11.68
2018-11-11T05:21:22.746Z,11.05
2018-11-11T05:22:27.106Z,12.75
2018-11-11T05:23:31.856Z,12.58
2018-11-11T05:24:36.414Z,11.08
2018-11-11T05:25:40.632Z,6.70
2018-11-11T05:26:46.454Z,14.75
2018-11-11T05:27:50.965Z,10.90
2018-11-11T05:28:55.356Z,16.32
2018-11-11T05:29:59.556Z,11.03
2018-11-11T05:31:03.845Z,13.18
2018-11-11T05:32:08.487Z,10.82
2018-11-11T05:33:12.986Z,8.43
2018-11-11T05:34:17.295Z,13.35
2018-11-11T05:35:22.097Z,11.93
2018-11-11T05:36:26.447Z,11.85
2018-11-11T05:37:30.671Z,13.43
2018-11-11T05:38:35.685Z,12.07
2018-11-11T05:39:41.290Z,12.82
2018-11-11T05:40:47.425Z,12.93
2018-11-11T05:41:52.842Z,7.33
2018-11-11T05:42:57.071Z,12.03
2018-11-11T05:44:01.391Z,12.53
2018-11-11T05:45:15.240Z,8.25
2018-11-11T05:46:19.516Z,10.40
2018-11-11T05:47:24.454Z,8.70
2018-11-11T05:48:29.736Z,8.30
2018-11-11T05:49:33.906Z,7.25
2018-11-11T05:50:38.296Z,11.05
2018-11-11T05:51:42.689Z,11.25
2018-11-11T05:52:47.876Z,7.05
2018-11-11T05:53:53.679Z,11.73
2018-11-11T05:54:58.591Z,8.20
2018-11-11T05:56:04.220Z,7.20
2018-11-11T05:57:11.410Z,9.90
2018-11-11T05:58:15.746Z,7.25
2018-11-11T05:59:19.962Z,9.85
2018-11-11T06:00:24.202Z,10.28
2018-11-11T06:01:29.703Z,9.63
2018-11-11T06:02:33.895Z,8.00
2018-11-11T06:03:38.265Z,8.90
2018-11-11T06:04:42.443Z,6.55
2018-11-11T06:05:46.794Z,6.58
2018-11-11T06:06:51.220Z,9.13
2018-11-11T06:07:55.442Z,9.98
2018-11-11T06:09:01.241Z,10.35
2018-11-11T06:10:06.813Z,9.73
2018-11-11T06:11:11.736Z,13.68
2018-11-11T06:12:15.974Z,18.80
2018-11-11T06:13:20.589Z,8.10
2018-11-11T06:14:25.135Z,6.75
2018-11-11T06:15:29.557Z,9.70
2018-11-11T06:16:35.100Z,12.45
2018-11-11T06:17:39.426Z,13.40
2018-11-11T06:18:43.596Z,10.20
2018-11-11T06:19:48.282Z,11.50
2018-11-11T06:20:52.520Z,10.85
2018-11-11T06:21:57.606Z,10.00
2018-11-11T06:23:01.848Z,12.35
2018-11-11T06:24:06.063Z,14.58
2018-11-11T06:25:11.319Z,16.30
2018-11-11T06:26:15.530Z,15.80
2018-11-11T06:27:19.758Z,9.05
2018-11-11T06:28:23.952Z,10.20
2018-11-11T06:29:28.233Z,6.45
2018-11-11T06:30:32.699Z,10.85
2018-11-11T06:31:37.677Z,12.25
2018-11-11T06:32:42.015Z,9.50
2018-11-11T06:33:46.327Z,10.25
2018-11-11T06:34:51.250Z,7.92
2018-11-11T06:35:55.752Z,9.60
2018-11-11T06:37:02.697Z,9.53
2018-11-11T06:38:08.521Z,8.10
2018-11-11T06:39:18.197Z,9.93
2018-11-11T06:40:24.606Z,8.75
2018-11-11T06:41:29.297Z,5.55
2018-11-11T06:42:36.000Z,12.70
2018-11-11T06:43:41.980Z,7.33
2018-11-11T06:44:46.806Z,9.88
2018-11-11T06:45:54.704Z,6.12
2018-11-11T06:47:01.618Z,16.42
2018-11-11T06:48:08.132Z,12.53
2018-11-11T06:49:14.098Z,5.95
2018-11-11T06:50:19.392Z,12.60
2018-11-11T06:51:24.150Z,7.62
2018-11-11T06:52:28.521Z,5.92
2018-11-11T06:53:32.756Z,7.15
2018-11-11T06:54:38.225Z,6.20
2018-11-11T06:55:42.400Z,9.60
2018-11-11T06:56:46.951Z,8.08
2018-11-11T06:57:51.145Z,7.83
2018-11-11T06:58:55.392Z,9.90
2018-11-11T06:59:59.852Z,9.28
2018-11-11T07:01:05.727Z,7.42
2018-11-11T07:02:10.317Z,14.70
2018-11-11T07:03:25.474Z,9.40
2018-11-11T07:04:29.700Z,8.88
2018-11-11T07:05:34.026Z,6.22
2018-11-11T07:06:39.075Z,9.05
2018-11-11T07:07:43.460Z,13.18
2018-11-11T07:08:47.678Z,7.83
2018-11-11T07:09:51.972Z,6.05
2018-11-11T07:10:56.183Z,7.75
2018-11-11T07:12:00.687Z,7.95
2018-11-11T07:13:05.044Z,10.65
2018-11-11T07:14:09.610Z,14.73
2018-11-11T07:15:13.852Z,7.12
2018-11-11T07:16:18.204Z,7.50
2018-11-11T07:17:22.564Z,10.75
2018-11-11T07:18:26.853Z,6.97
2018-11-11T07:19:32.174Z,7.42
2018-11-11T07:20:36.710Z,10.63
2018-11-11T07:21:44.479Z,21.10
2018-11-11T07:22:50.169Z,12.85
2018-11-11T07:23:55.105Z,10.03
2018-11-11T07:24:59.405Z,11.38
2018-11-11T07:26:04.501Z,11.55
2018-11-11T07:27:08.817Z,9.55
2018-11-11T07:28:13.441Z,7.90
2018-11-11T07:29:17.725Z,10.45
2018-11-11T07:30:37.316Z,11.50
2018-11-11T07:31:41.800Z,45.03
2018-11-11T07:32:46.305Z,33.15
2018-11-11T07:33:50.833Z,41.92
2018-11-11T07:34:57.299Z,48.85
2018-11-11T07:36:02.642Z,37.28
2018-11-11T07:37:06.975Z,31.70
2018-11-11T07:38:12.827Z,32.28
2018-11-11T07:39:17.262Z,30.08
2018-11-11T07:40:22.257Z,28.23
2018-11-11T07:41:26.925Z,11.75
2018-11-11T07:42:31.247Z,16.00
2018-11-11T07:43:36.182Z,10.48
2018-11-11T07:44:41.318Z,9.48
2018-11-11T07:45:45.833Z,12.85
2018-11-11T07:46:52.066Z,7.35
2018-11-11T07:47:56.414Z,11.83
2018-11-11T07:49:01.232Z,10.32
2018-11-11T07:50:07.892Z,8.88
2018-11-11T07:51:12.273Z,12.95
2018-11-11T07:52:17.164Z,15.85
2018-11-11T07:53:21.397Z,6.28
2018-11-11T07:54:28.633Z,18.20
2018-11-11T07:55:38.215Z,10.20
2018-11-11T07:56:45.157Z,6.15
2018-11-11T07:57:50.713Z,5.95
2018-11-11T07:58:56.259Z,7.72
2018-11-11T08:00:16.798Z,8.78
2018-11-11T08:01:21.866Z,9.95
2018-11-11T08:02:37.832Z,9.30
2018-11-11T08:03:44.229Z,7.78
2018-11-11T08:04:49.704Z,5.78
2018-11-11T08:05:58.314Z,7.03
2018-11-11T08:07:04.822Z,5.97
2018-11-11T08:08:17.551Z,5.22
2018-11-11T08:09:26.506Z,5.17
2018-11-11T08:10:51.097Z,4.35
2018-11-11T08:12:06.750Z,11.48
2018-11-11T08:13:13.801Z,11.97
2018-11-11T08:14:26.047Z,8.60
2018-11-11T08:15:46.955Z,11.38
2018-11-11T08:17:05.190Z,5.35
2018-11-11T08:18:33.267Z,6.75
2018-11-11T08:19:40.027Z,6.28
2018-11-11T08:20:52.529Z,8.43
2018-11-11T08:21:57.955Z,6.58
2018-11-11T08:23:04.479Z,6.10
2018-11-11T08:24:10.242Z,5.65
2018-11-11T08:25:19.539Z,6.83
2018-11-11T08:26:26.477Z,7.42
2018-11-11T08:27:31.772Z,7.62
2018-11-11T08:28:37.259Z,7.55
2018-11-11T08:29:42.268Z,7.47
2018-11-11T08:30:48.315Z,6.67
2018-11-11T08:31:53.956Z,6.53
2018-11-11T08:32:59.922Z,5.55
2018-11-11T08:34:10.039Z,7.08
2018-11-11T08:35:17.752Z,10.18
2018-11-11T08:36:24.869Z,7.78
2018-11-11T08:37:34.594Z,6.22
2018-11-11T08:38:39.808Z,5.05
2018-11-11T08:41:01.764Z,6.58
2018-11-11T08:42:06.865Z,10.50
2018-11-11T08:43:11.608Z,5.17
2018-11-11T08:44:16.808Z,4.75
2018-11-11T08:45:22.072Z,6.28
2018-11-11T08:46:28.772Z,4.83
2018-11-11T08:47:33.613Z,8.38
2018-11-11T08:48:40.999Z,6.58
2018-11-11T08:49:49.383Z,6.33
2018-11-11T08:50:54.435Z,6.03
2018-11-11T08:52:00.133Z,6.20
2018-11-11T08:53:06.222Z,4.90
2018-11-11T08:54:14.896Z,7.33
2018-11-11T08:55:21.180Z,9.40
2018-11-11T08:56:26.034Z,8.40
2018-11-11T08:57:31.613Z,6.55
2018-11-11T08:58:38.574Z,5.50
2018-11-11T08:59:44.566Z,6.58
2018-11-11T09:00:54.356Z,7.70
2018-11-11T09:02:02.583Z,8.08
2018-11-11T09:03:20.928Z,11.18
2018-11-11T09:04:25.209Z,7.85
2018-11-11T09:05:33.626Z,6.55
2018-11-11T09:06:44.497Z,6.45
2018-11-11T09:07:50.254Z,10.10
2018-11-11T09:08:54.800Z,8.93
2018-11-11T09:09:59.368Z,7.17
2018-11-11T09:11:29.686Z,8.08
2018-11-11T09:12:37.076Z,6.97
2018-11-11T09:13:42.042Z,9.98
2018-11-11T09:14:47.182Z,6.83
2018-11-11T09:15:52.254Z,7.67
2018-11-11T09:16:56.786Z,5.58
2018-11-11T09:18:02.895Z,6.47
2018-11-11T09:19:07.324Z,8.98
2018-11-11T09:20:14.294Z,6.58
2018-11-11T09:21:18.770Z,9.45
2018-11-11T09:22:23.111Z,7.28
2018-11-11T09:23:27.618Z,7.65
2018-11-11T09:24:36.042Z,7.70
2018-11-11T09:25:43.617Z,13.28
2018-11-11T09:26:55.922Z,13.50
2018-11-11T09:29:03.981Z,5.37
2018-11-11T09:30:10.476Z,8.18
2018-11-11T09:31:19.130Z,10.45
2018-11-11T09:32:24.591Z,9.20
2018-11-11T09:33:29.188Z,7.58
2018-11-11T09:34:34.112Z,8.73
2018-11-11T09:35:40.125Z,7.83
2018-11-11T09:36:45.501Z,7.22
2018-11-11T09:37:49.767Z,11.73
2018-11-11T09:38:54.184Z,5.33
2018-11-11T09:39:58.883Z,5.60
2018-11-11T09:41:04.421Z,8.75
2018-11-11T09:42:10.093Z,7.40
2018-11-11T09:43:19.476Z,8.80
2018-11-11T09:44:26.339Z,6.53
2018-11-11T09:45:30.807Z,8.15
2018-11-11T09:46:35.593Z,6.53
2018-11-11T09:47:41.061Z,5.55
2018-11-11T09:48:45.723Z,7.67
2018-11-11T09:49:50.031Z,7.25
2018-11-11T09:50:54.803Z,6.35
2018-11-11T09:52:00.410Z,7.35
2018-11-11T09:53:05.350Z,8.18
2018-11-11T09:54:09.827Z,7.58
2018-11-11T09:55:14.888Z,8.30
2018-11-11T09:56:26.028Z,6.97
2018-11-11T09:57:34.253Z,7.12
2018-11-11T09:59:01.988Z,9.98
2018-11-11T10:00:53.559Z,9.35
2018-11-11T10:02:00.552Z,7.70
2018-11-11T10:05:13.996Z,9.65
2018-11-11T10:06:27.787Z,12.20
2018-11-11T10:07:40.087Z,7.45
2018-11-11T10:09:53.871Z,9.65
2018-11-11T10:12:09.778Z,12.40
2018-11-11T10:15:28.805Z,10.23
2018-11-11T10:18:45.918Z,7.67
2018-11-11T10:19:55.481Z,8.60
2018-11-11T10:21:04.446Z,8.20
2018-11-11T10:22:17.017Z,7.72
2018-11-11T10:23:31.145Z,7.22
2018-11-11T10:25:07.091Z,9.15
2018-11-11T10:26:21.243Z,8.88
2018-11-11T10:27:34.159Z,8.68
2018-11-11T10:28:44.580Z,11.40
2018-11-11T10:30:03.149Z,11.55
2018-11-11T10:33:41.970Z,8.25
2018-11-11T10:34:52.956Z,11.93
2018-11-11T10:36:04.925Z,7.37
2018-11-11T10:37:33.888Z,9.23
2018-11-11T10:40:47.325Z,7.03
2018-11-11T10:42:25.945Z,7.55
2018-11-11T10:43:37.051Z,7.35
2018-11-11T10:44:46.884Z,9.78
2018-11-11T10:45:58.418Z,6.87
2018-11-11T10:47:06.294Z,7.22
2018-11-11T10:48:13.385Z,7.22
2018-11-11T10:49:24.643Z,9.43
2018-11-11T10:50:34.945Z,8.28
2018-11-11T10:51:39.621Z,8.08
2018-11-11T10:52:45.394Z,9.90
2018-11-11T10:53:51.614Z,8.90
2018-11-11T10:54:57.193Z,8.53
2018-11-11T10:56:01.770Z,12.40
2018-11-11T10:57:07.299Z,8.15
2018-11-11T10:58:17.088Z,9.63
2018-11-11T10:59:23.927Z,10.45
2018-11-11T11:00:33.052Z,12.33
2018-11-11T11:01:43.562Z,15.28
2018-11-11T11:03:00.542Z,9.63
2018-11-11T11:04:05.801Z,8.98
2018-11-11T11:05:12.014Z,9.83
2018-11-11T11:06:17.699Z,8.78
2018-11-11T11:07:23.583Z,7.87
2018-11-11T11:08:28.323Z,8.63
2018-11-11T11:09:32.654Z,7.90
2018-11-11T11:10:37.565Z,6.35
2018-11-11T11:11:45.455Z,12.73
2018-11-11T11:12:50.449Z,8.38
2018-11-11T11:14:00.576Z,14.53
2018-11-11T11:15:08.842Z,11.43
2018-11-11T11:16:15.338Z,8.38
2018-11-11T11:17:20.039Z,9.18
2018-11-11T11:18:24.880Z,9.75
2018-11-11T11:19:29.622Z,10.98
2018-11-11T11:20:34.621Z,9.88
2018-11-11T11:21:44.002Z,12.28
2018-11-11T11:22:48.435Z,11.68
2018-11-11T11:23:53.386Z,17.67
2018-11-11T11:24:58.731Z,9.23
2018-11-11T11:26:03.694Z,8.65
2018-11-11T11:27:08.097Z,10.20
2018-11-11T11:28:12.568Z,10.78
2018-11-11T11:29:17.972Z,8.10
2018-11-11T11:30:22.843Z,10.30
2018-11-11T11:31:28.070Z,12.50
2018-11-11T11:32:32.689Z,10.10
2018-11-11T11:33:37.185Z,12.23
2018-11-11T11:34:41.540Z,10.90
2018-11-11T11:35:46.791Z,16.77
2018-11-11T11:36:51.964Z,12.70
2018-11-11T11:37:56.546Z,8.68
2018-11-11T11:39:02.638Z,10.25
2018-11-11T11:40:08.367Z,9.53
2018-11-11T11:41:14.687Z,20.88
2018-11-11T11:42:22.061Z,11.08
2018-11-11T11:43:26.546Z,12.60
2018-11-11T11:44:34.698Z,13.28
2018-11-11T11:45:39.705Z,13.45
2018-11-11T11:46:44.470Z,14.80
2018-11-11T11:47:55.578Z,14.93
2018-11-11T11:49:01.367Z,9.00
2018-11-11T11:50:08.241Z,10.65
2018-11-11T11:51:14.800Z,9.43
2018-11-11T11:52:44.373Z,11.18
2018-11-11T11:53:51.393Z,10.10
2018-11-11T11:54:56.622Z,9.23
2018-11-11T11:56:36.716Z,14.98
2018-11-11T11:57:55.504Z,10.23
2018-11-11T11:59:05.720Z,11.18
2018-11-11T12:00:12.591Z,10.55
2018-11-11T12:01:23.394Z,11.78
2018-11-11T12:02:30.604Z,14.28
2018-11-11T12:03:51.818Z,9.60
2018-11-11T12:06:58.639Z,10.72
2018-11-11T12:08:14.017Z,15.18
2018-11-11T12:09:25.187Z,12.90
2018-11-11T12:10:41.121Z,13.35
2018-11-11T12:11:52.821Z,10.98
2018-11-11T12:14:27.418Z,18.20
2018-11-11T12:15:44.648Z,16.93
2018-11-11T12:17:02.953Z,11.90
2018-11-11T12:18:10.735Z,9.85
2018-11-11T12:19:15.253Z,10.30
2018-11-11T12:20:23.014Z,15.03
2018-11-11T12:21:34.659Z,12.68
2018-11-11T12:22:43.894Z,11.88
2018-11-11T12:23:49.255Z,11.97
2018-11-11T12:24:55.720Z,10.70
2018-11-11T12:26:17.738Z,10.70
2018-11-11T12:27:27.014Z,16.48
2018-11-11T12:28:34.063Z,14.60
2018-11-11T12:29:59.270Z,14.35
2018-11-11T12:31:42.225Z,11.57
2018-11-11T12:33:14.445Z,16.80
2018-11-11T12:34:44.263Z,35.05
2018-11-11T12:38:14.979Z,17.00
2018-11-11T12:39:20.634Z,12.85
2018-11-11T12:40:25.682Z,21.30
2018-11-11T12:41:31.455Z,17.10
2018-11-11T12:42:36.406Z,18.27
2018-11-11T12:43:41.520Z,23.77
2018-11-11T12:44:45.966Z,11.80
2018-11-11T12:45:51.471Z,14.13
2018-11-11T12:46:59.712Z,18.05
2018-11-11T12:48:07.595Z,11.22
2018-11-11T12:49:17.295Z,14.70
2018-11-11T12:50:23.784Z,11.20
2018-11-11T12:51:33.577Z,9.65
2018-11-11T12:52:41.370Z,11.85
2018-11-11T12:53:46.331Z,10.38
2018-11-11T12:54:55.925Z,10.40
2018-11-11T12:56:00.917Z,11.28
2018-11-11T12:57:05.750Z,10.58
2018-11-11T12:58:10.137Z,15.00
2018-11-11T12:59:17.171Z,9.18
2018-11-11T13:00:59.181Z,16.40
2018-11-11T13:02:26.638Z,17.65
2018-11-11T13:03:33.174Z,10.25
2018-11-11T13:04:38.853Z,10.68
2018-11-11T13:05:49.591Z,11.60
2018-11-11T13:06:54.680Z,7.83
2018-11-11T13:08:02.292Z,12.10
2018-11-11T13:09:10.823Z,7.62
2018-11-11T13:10:16.611Z,13.28
2018-11-11T13:11:23.198Z,11.65
2018-11-11T13:12:27.795Z,7.78
2018-11-11T13:13:35.554Z,12.90
2018-11-11T13:14:40.319Z,18.02
2018-11-11T13:15:47.977Z,11.93
2018-11-11T13:16:52.941Z,12.33
2018-11-11T13:18:00.636Z,13.38
2018-11-11T13:19:06.596Z,15.08
2018-11-11T13:20:14.665Z,16.12
2018-11-11T13:21:24.341Z,15.50
2018-11-11T13:22:31.916Z,17.15
2018-11-11T13:23:36.807Z,15.08
2018-11-11T13:24:42.069Z,17.73
2018-11-11T13:25:46.798Z,11.85
2018-11-11T13:26:52.254Z,11.97
2018-11-11T13:27:58.468Z,14.15
2018-11-11T13:29:05.734Z,16.15
2018-11-11T13:30:14.654Z,13.65
2018-11-11T13:31:22.847Z,12.98
2018-11-11T13:32:27.669Z,18.87
2018-11-11T13:33:32.490Z,10.85
2018-11-11T13:34:37.544Z,19.87
2018-11-11T13:35:43.242Z,14.38
2018-11-11T13:36:49.711Z,13.28
2018-11-11T13:38:07.103Z,14.98
2018-11-11T13:39:14.852Z,15.63
2018-11-11T13:40:21.211Z,10.72
2018-11-11T13:41:33.462Z,13.70
2018-11-11T13:42:49.226Z,14.45
2018-11-11T13:43:57.692Z,17.30
2018-11-11T13:45:08.310Z,18.70
2018-11-11T13:46:13.242Z,19.40
2018-11-11T13:47:24.078Z,20.15
2018-11-11T13:48:28.849Z,20.35
2018-11-11T13:49:53.356Z,26.75
2018-11-11T13:51:03.660Z,25.88
2018-11-11T13:52:08.451Z,23.77
2018-11-11T13:53:17.621Z,21.40
2018-11-11T13:54:29.279Z,23.02
2018-11-11T13:55:34.546Z,23.27
2018-11-11T13:56:39.713Z,31.55
2018-11-11T13:57:46.033Z,29.00
2018-11-11T13:58:51.462Z,26.75
2018-11-11T13:59:56.546Z,23.00
2018-11-11T14:01:02.433Z,12.88
2018-11-11T14:02:13.953Z,20.85
2018-11-11T14:03:25.329Z,16.73
2018-11-11T14:04:31.308Z,11.12
2018-11-11T14:05:43.619Z,17.07
2018-11-11T14:06:54.107Z,20.50
2018-11-11T14:08:01.246Z,14.00
2018-11-11T14:09:10.640Z,21.25
2018-11-11T14:10:17.751Z,25.57
2018-11-11T14:11:24.773Z,22.93
2018-11-11T14:12:29.873Z,22.75
2018-11-11T14:13:36.634Z,19.40
2018-11-11T14:14:46.209Z,16.25
2018-11-11T14:16:00.671Z,14.70
2018-11-11T14:17:10.479Z,12.80
2018-11-11T14:18:16.739Z,14.58
2018-11-11T14:19:22.400Z,12.07
2018-11-11T14:20:30.728Z,13.85
2018-11-11T14:21:36.665Z,13.65
2018-11-11T14:23:08.844Z,22.32
2018-11-11T14:24:14.848Z,12.03
2018-11-11T14:25:22.206Z,17.32
2018-11-11T14:26:28.555Z,18.73
2018-11-11T14:27:35.692Z,16.45
2018-11-11T14:28:42.339Z,18.65
2018-11-11T14:29:50.665Z,21.45
2018-11-11T14:30:58.547Z,20.90
2018-11-11T14:32:08.313Z,23.00
2018-11-11T14:33:13.457Z,19.15
2018-11-11T14:34:18.472Z,23.77
2018-11-11T14:35:23.672Z,21.00
2018-11-11T14:36:30.733Z,21.77
2018-11-11T14:37:36.699Z,27.27
2018-11-11T14:38:45.003Z,21.87
2018-11-11T14:39:49.517Z,24.75
2018-11-11T14:40:53.985Z,31.33
2018-11-11T14:42:02.674Z,30.48
2018-11-11T14:43:07.311Z,18.82
2018-11-11T14:44:12.709Z,17.85
2018-11-11T14:45:18.316Z,17.40
2018-11-11T14:46:25.268Z,16.37
2018-11-11T14:47:30.733Z,13.90
2018-11-11T14:48:35.777Z,16.15
2018-11-11T14:49:41.686Z,11.18
2018-11-11T14:50:46.293Z,18.17
2018-11-11T14:51:51.043Z,18.37
2018-11-11T14:52:56.561Z,13.00
2018-11-11T14:54:01.597Z,23.85
2018-11-11T14:55:17.280Z,17.37
2018-11-11T14:56:21.893Z,19.17
2018-11-11T14:57:28.279Z,14.95
2018-11-11T14:58:33.782Z,16.20